createdAt,value
2023-03-01T00:01:37.440Z,4.50
2023-03-01T00:07:39.719Z,4.50
2023-03-01T00:13:42.963Z,4.40
2023-03-01T00:19:45.222Z,4.50
2023-03-01T00:25:47.613Z,4.60
2023-03-01T00:31:49.802Z,4.60
2023-03-01T00:37:58.847Z,4.60
2023-03-01T00:44:00.996Z,4.60
2023-03-01T00:50:03.261Z,4.70
2023-03-01T00:56:07.064Z,4.50
2023-03-01T01:02:09.308Z,4.50
2023-03-01T01:08:11.381Z,4.50
2023-03-01T01:14:13.876Z,4.50
2023-03-01T01:20:16.086Z,4.50
2023-03-01T01:26:21.534Z,4.50
2023-03-01T01:32:27.172Z,4.50
2023-03-01T01:38:29.519Z,4.50
2023-03-01T01:44:31.914Z,4.50
2023-03-01T01:50:39.526Z,4.50
2023-03-01T01:56:45.916Z,4.50
2023-03-01T02:02:53.174Z,4.50
2023-03-01T02:08:56.528Z,4.50
2023-03-01T02:14:58.903Z,4.40
2023-03-01T02:21:25.516Z,4.40
2023-03-01T02:27:37.768Z,4.40
2023-03-01T02:33:40.870Z,4.30
2023-03-01T02:39:50.140Z,4.40
2023-03-01T02:45:54.647Z,4.50
2023-03-01T02:52:17.252Z,4.50
2023-03-01T02:58:19.426Z,4.40
2023-03-01T03:04:22.326Z,4.40
2023-03-01T03:10:31.306Z,4.40
2023-03-01T03:16:34.143Z,4.50
2023-03-01T03:22:36.595Z,4.40
2023-03-01T03:28:41.153Z,4.40
2023-03-01T03:34:43.582Z,4.40
2023-03-01T03:40:49.129Z,4.40
2023-03-01T03:46:51.438Z,4.40
2023-03-01T03:52:54.330Z,4.30
2023-03-01T03:58:56.570Z,4.40
2023-03-01T04:04:58.581Z,4.30
2023-03-01T04:11:25.562Z,4.40
2023-03-01T04:17:28.126Z,4.40
2023-03-01T04:23:30.375Z,4.40
2023-03-01T04:29:32.428Z,4.30
2023-03-01T04:35:35.857Z,4.30
2023-03-01T04:41:39.687Z,4.40
2023-03-01T04:47:44.086Z,4.30
2023-03-01T04:53:46.294Z,4.30
2023-03-01T04:59:48.647Z,4.40
2023-03-01T05:05:53.370Z,4.30
2023-03-01T05:11:55.698Z,4.30
2023-03-01T05:18:00.704Z,4.40
2023-03-01T05:24:03.375Z,4.50
2023-03-01T05:30:14.608Z,4.50
2023-03-01T05:36:16.602Z,4.60
2023-03-01T05:42:19.557Z,4.60
2023-03-01T05:48:22.015Z,4.50
2023-03-01T05:54:24.192Z,4.50
2023-03-01T06:00:26.639Z,4.60
2023-03-01T06:06:29.430Z,4.60
2023-03-01T06:12:34.103Z,4.50
2023-03-01T06:18:37.130Z,4.50
2023-03-01T06:24:41.884Z,4.60
2023-03-01T06:30:44.210Z,4.60
2023-03-01T06:36:47.557Z,4.70
2023-03-01T06:42:51.351Z,4.60
2023-03-01T06:48:53.540Z,4.70
2023-03-01T06:54:55.665Z,4.80
2023-03-01T07:00:57.945Z,4.80
2023-03-01T07:07:01.619Z,4.60
2023-03-01T07:13:03.880Z,4.80
2023-03-01T07:19:07.006Z,4.80
2023-03-01T07:25:10.153Z,4.90
2023-03-01T07:31:12.340Z,4.90
2023-03-01T07:37:14.650Z,5.00
2023-03-01T07:43:16.982Z,5.10
2023-03-01T07:49:19.137Z,5.10
2023-03-01T07:55:21.367Z,5.30
2023-03-01T08:01:23.742Z,5.30
2023-03-01T08:07:25.813Z,5.10
2023-03-01T08:13:28.111Z,5.10
2023-03-01T08:19:30.732Z,5.30
2023-03-01T08:25:32.741Z,5.50
2023-03-01T08:31:38.706Z,5.50
2023-03-01T08:37:40.955Z,5.60
2023-03-01T08:43:43.344Z,5.60
2023-03-01T08:49:45.433Z,5.60
2023-03-01T08:55:49.908Z,5.80
2023-03-01T09:01:52.615Z,5.90
2023-03-01T09:07:54.791Z,6.20
2023-03-01T09:13:57.300Z,6.30
2023-03-01T09:20:01.036Z,6.50
2023-03-01T09:26:03.770Z,6.70
2023-03-01T09:32:06.191Z,6.60
2023-03-01T09:38:08.375Z,6.80
2023-03-01T09:44:35.941Z,6.80
2023-03-01T09:50:41.700Z,6.80
2023-03-01T09:57:08.768Z,6.80
2023-03-01T10:03:45.528Z,6.70
2023-03-01T10:09:48.357Z,6.50
2023-03-01T10:15:56.480Z,6.80
2023-03-01T10:22:06.855Z,7.30
2023-03-01T10:28:21.132Z,7.40
2023-03-01T10:34:31.778Z,7.40
2023-03-01T10:40:35.734Z,7.10
2023-03-01T10:46:38.738Z,7.30
2023-03-01T10:52:42.834Z,7.20
2023-03-01T10:59:05.606Z,7.40
2023-03-01T11:05:25.121Z,7.50
2023-03-01T11:11:33.041Z,7.20
2023-03-01T11:17:53.222Z,7.40
2023-03-01T11:24:00.166Z,7.20
2023-03-01T11:31:08.247Z,7.30
2023-03-01T11:37:23.558Z,7.50
2023-03-01T11:43:35.692Z,7.60
2023-03-01T11:49:56.809Z,7.70
2023-03-01T11:56:08.227Z,8.00
2023-03-01T12:02:45.519Z,8.40
2023-03-01T12:09:01.877Z,8.70
2023-03-01T12:15:45.598Z,8.70
2023-03-01T12:22:03.576Z,8.70
2023-03-01T12:28:24.156Z,8.40
2023-03-01T12:34:51.017Z,8.30
2023-03-01T12:41:11.317Z,8.30
2023-03-01T12:47:55.251Z,8.10
2023-03-01T12:54:00.219Z,8.10
2023-03-01T13:00:25.535Z,8.20
2023-03-01T13:07:01.905Z,7.90
2023-03-01T13:13:14.753Z,7.60
2023-03-01T13:19:28.126Z,7.60
2023-03-01T13:25:37.739Z,7.80
2023-03-01T13:31:58.235Z,8.00
2023-03-01T13:38:38.286Z,8.00
2023-03-01T13:44:42.551Z,8.00
2023-03-01T13:51:08.051Z,7.80
2023-03-01T13:57:23.358Z,7.70
2023-03-01T14:03:26.378Z,7.50
2023-03-01T14:09:33.538Z,7.50
2023-03-01T14:15:50.091Z,7.30
2023-03-01T14:22:05.350Z,7.30
2023-03-01T14:28:19.626Z,7.30
2023-03-01T14:34:26.344Z,7.30
2023-03-01T14:40:35.193Z,7.30
2023-03-01T14:46:41.033Z,7.20
2023-03-01T14:52:47.926Z,7.10
2023-03-01T14:58:54.608Z,7.10
2023-03-01T15:05:02.566Z,7.10
2023-03-01T15:11:18.251Z,7.10
2023-03-01T15:17:32.606Z,7.00
2023-03-01T15:23:35.661Z,7.00
2023-03-01T15:29:42.279Z,6.80
2023-03-01T15:35:49.585Z,6.80
2023-03-01T15:41:52.153Z,6.80
2023-03-01T15:47:59.132Z,6.70
2023-03-01T15:54:06.169Z,6.60
2023-03-01T16:00:14.883Z,6.60
2023-03-01T16:06:17.170Z,6.70
2023-03-01T16:12:22.690Z,6.60
2023-03-01T16:18:25.146Z,6.60
2023-03-01T16:24:27.871Z,6.50
2023-03-01T16:30:30.202Z,6.50
2023-03-01T16:36:32.562Z,6.40
2023-03-01T16:42:40.534Z,6.40
2023-03-01T16:48:43.010Z,6.40
2023-03-01T16:54:45.314Z,6.30
2023-03-01T17:00:47.625Z,6.30
2023-03-01T17:06:50.410Z,6.20
2023-03-01T17:12:52.612Z,6.20
2023-03-01T17:18:54.954Z,6.20
2023-03-01T17:24:57.366Z,6.10
2023-03-01T17:31:05.524Z,6.10
2023-03-01T17:37:07.734Z,6.00
2023-03-01T17:43:10.490Z,6.00
2023-03-01T17:49:13.323Z,6.00
2023-03-01T17:55:15.812Z,6.00
2023-03-01T18:01:20.344Z,6.00
2023-03-01T18:07:22.752Z,6.10
2023-03-01T18:13:25.311Z,6.00
2023-03-01T18:19:28.723Z,6.00
2023-03-01T18:25:31.304Z,6.00
2023-03-01T18:31:34.266Z,6.00
2023-03-01T18:37:36.474Z,6.10
2023-03-01T18:43:38.849Z,6.00
2023-03-01T18:49:41.142Z,5.90
2023-03-01T18:55:43.322Z,5.80
2023-03-01T19:01:45.781Z,5.70
2023-03-01T19:07:48.574Z,5.70
2023-03-01T19:13:52.217Z,5.70
2023-03-01T19:19:55.075Z,5.60
2023-03-01T19:26:06.807Z,5.60
2023-03-01T19:32:09.039Z,5.60
2023-03-01T19:38:11.146Z,5.60
2023-03-01T19:44:13.475Z,5.60
2023-03-01T19:50:15.832Z,5.60
2023-03-01T19:56:18.066Z,5.60
2023-03-01T20:02:20.378Z,5.60
2023-03-01T20:08:22.959Z,5.50
2023-03-01T20:14:25.252Z,5.50
2023-03-01T20:20:27.650Z,5.40
2023-03-01T20:26:30.425Z,5.40
2023-03-01T20:32:33.517Z,5.40
2023-03-01T20:38:36.186Z,5.30
2023-03-01T20:44:43.347Z,5.40
2023-03-01T20:50:45.619Z,5.40
2023-03-01T20:56:48.157Z,5.40
2023-03-01T21:02:50.574Z,5.30
2023-03-01T21:08:54.239Z,5.30
2023-03-01T21:14:56.381Z,5.30
2023-03-01T21:21:02.868Z,5.20
2023-03-01T21:27:06.983Z,5.20
2023-03-01T21:33:09.487Z,5.10
2023-03-01T21:39:13.077Z,5.00
2023-03-01T21:45:15.368Z,5.00
2023-03-01T21:51:20.865Z,5.00
2023-03-01T21:57:23.292Z,5.10
2023-03-01T22:03:25.706Z,5.10
2023-03-01T22:09:27.779Z,5.10
2023-03-01T22:15:29.809Z,5.20
2023-03-01T22:21:31.902Z,5.20
2023-03-01T22:27:34.561Z,5.20
2023-03-01T22:33:36.622Z,5.20
2023-03-01T22:39:38.886Z,5.20
2023-03-01T22:45:41.162Z,5.20
2023-03-01T22:51:44.501Z,5.20
2023-03-01T22:57:50.587Z,5.10
2023-03-01T23:03:52.878Z,5.20
2023-03-01T23:09:54.884Z,5.10
2023-03-01T23:15:57.978Z,5.20
2023-03-01T23:22:00.265Z,5.10
2023-03-01T23:28:02.842Z,5.00
2023-03-01T23:34:04.861Z,5.00
2023-03-01T23:40:07.439Z,4.90
2023-03-01T23:46:14.701Z,4.70
2023-03-01T23:52:17.652Z,4.70
2023-03-01T23:58:20.407Z,4.70
